Time;durP1;ratioP1;P1;durP2;ratioP2;P2;SDS_P1;SDS_P2;PMS_P1;PMS_P2;Temp;Humidity;BMP_temperature;BMP_pressure;BME280_temperature;BME280_humidity;BME280_pressure;Samples;Min_cycle;Max_cycle;Signal;HPM_P1;HPM_P2
2022/04/13 00:02:04;;;;;;;10.93;10.43;;;13.40;14.90;;;;;;5074124;28;20510;-75
2022/04/13 00:04:29;;;;;;;10.83;10.27;;;13.40;15.00;;;;;;5073324;28;20881;-75
2022/04/13 00:06:55;;;;;;;10.90;10.23;;;13.40;15.30;;;;;;5074422;28;20184;-75
2022/04/13 00:09:20;;;;;;;10.33;9.90;;;13.30;15.40;;;;;;5072676;28;20277;-74
2022/04/13 00:11:46;;;;;;;10.73;9.90;;;13.30;15.40;;;;;;5072723;28;20170;-74
2022/04/13 00:14:11;;;;;;;10.37;9.87;;;13.30;15.60;;;;;;5072292;28;20209;-73
2022/04/13 00:16:37;;;;;;;9.87;9.47;;;13.20;15.80;;;;;;5072074;28;20170;-72
2022/04/13 00:19:03;;;;;;;9.90;9.40;;;13.20;16.00;;;;;;5072249;28;20263;-73
2022/04/13 00:21:28;;;;;;;10.10;9.70;;;13.10;16.20;;;;;;5072120;28;20408;-74
2022/04/13 00:23:56;;;;;;;11.13;10.43;;;13.10;16.20;;;;;;5072204;28;20194;-74
2022/04/13 00:26:22;;;;;;;10.40;9.67;;;13.10;16.20;;;;;;5072054;28;20251;-74
2022/04/13 00:28:48;;;;;;;10.20;9.70;;;13.10;16.20;;;;;;5070824;28;21117;-73
2022/04/13 00:31:13;;;;;;;10.00;9.60;;;13.00;16.30;;;;;;5072111;28;20485;-73
2022/04/13 00:33:39;;;;;;;9.90;9.40;;;13.00;16.70;;;;;;5072001;28;20203;-74
2022/04/13 00:36:05;;;;;;;9.80;9.17;;;12.90;16.90;;;;;;5072140;28;20172;-75
2022/04/13 00:38:30;;;;;;;9.83;9.23;;;12.90;17.40;;;;;;5071727;28;20200;-74
2022/04/13 00:40:59;;;;;;;9.57;8.97;;;12.80;17.20;;;;;;5072013;28;20182;-73
2022/04/13 00:43:25;;;;;;;10.83;10.23;;;12.80;17.50;;;;;;5071872;28;20226;-73
2022/04/13 00:45:51;;;;;;;8.87;8.40;;;12.80;17.60;;;;;;5072026;28;20455;-73
2022/04/13 00:48:27;;;;;;;9.43;8.77;;;12.80;17.50;;;;;;5071973;28;20177;-75
2022/04/13 00:50:52;;;;;;;9.53;8.93;;;12.70;17.40;;;;;;5071992;28;20459;-74
2022/04/13 00:53:19;;;;;;;9.47;8.97;;;12.70;17.40;;;;;;5070469;28;20478;-73
2022/04/13 00:55:48;;;;;;;10.10;9.57;;;12.70;17.60;;;;;;5070622;28;20172;-75
2022/04/13 00:58:17;;;;;;;9.40;8.90;;;12.70;17.80;;;;;;5071544;28;20418;-73
2022/04/13 01:00:48;;;;;;;8.97;8.47;;;12.70;17.80;;;;;;5070398;28;20435;-74
2022/04/13 01:03:17;;;;;;;9.20;8.60;;;12.70;17.60;;;;;;5070315;28;20440;-73
2022/04/13 01:05:44;;;;;;;9.50;9.00;;;12.70;17.90;;;;;;5070540;28;20485;-73
2022/04/13 01:08:12;;;;;;;10.60;9.70;;;12.60;17.90;;;;;;5072050;28;20827;-73
2022/04/13 01:10:40;;;;;;;9.73;9.23;;;12.60;18.00;;;;;;5072022;28;20484;-73
2022/04/13 01:13:06;;;;;;;9.70;9.10;;;12.60;18.20;;;;;;5070455;28;20824;-73
2022/04/13 01:15:32;;;;;;;10.10;9.60;;;12.50;18.20;;;;;;5071558;28;20427;-73
2022/04/13 01:17:58;;;;;;;9.80;9.20;;;12.40;18.50;;;;;;5075609;28;20202;-73
2022/04/13 01:20:24;;;;;;;8.27;7.87;;;12.40;18.50;;;;;;5075688;28;20500;-73
2022/04/13 01:22:49;;;;;;;10.77;9.77;;;12.40;18.70;;;;;;5074383;28;20236;-73
2022/04/13 01:25:15;;;;;;;8.70;8.03;;;12.40;19.00;;;;;;5075581;28;20511;-73
2022/04/13 01:27:40;;;;;;;9.57;9.07;;;12.30;18.90;;;;;;5075392;28;20211;-73
2022/04/13 01:30:10;;;;;;;9.10;8.57;;;12.30;19.10;;;;;;5075230;28;20204;-73
2022/04/13 01:32:36;;;;;;;9.60;9.10;;;12.30;19.20;;;;;;5075346;28;20204;-73
2022/04/13 01:35:02;;;;;;;10.03;9.13;;;12.30;19.50;;;;;;5075518;28;20407;-73
2022/04/13 01:37:27;;;;;;;9.57;9.03;;;12.20;19.40;;;;;;5075123;28;20182;-73
2022/04/13 01:39:54;;;;;;;8.80;8.20;;;12.10;19.80;;;;;;5074274;28;20770;-73
2022/04/13 01:42:20;;;;;;;8.70;8.30;;;12.10;19.80;;;;;;5075283;28;20178;-74
2022/04/13 01:44:47;;;;;;;8.80;8.27;;;12.00;19.70;;;;;;5075363;28;20476;-73
2022/04/13 01:47:12;;;;;;;8.77;8.30;;;11.90;19.70;;;;;;5075093;28;20428;-73
2022/04/13 01:49:38;;;;;;;8.03;7.53;;;11.90;19.80;;;;;;5075247;28;20455;-73
2022/04/13 01:52:06;;;;;;;7.93;7.53;;;11.80;19.60;;;;;;5075217;28;20184;-73
2022/04/13 01:54:31;;;;;;;8.53;7.83;;;11.60;20.20;;;;;;5073881;28;20423;-73
2022/04/13 01:56:57;;;;;;;8.17;7.67;;;11.60;20.80;;;;;;5074660;28;20487;-73
2022/04/13 01:59:23;;;;;;;9.30;8.63;;;11.50;20.70;;;;;;5075114;28;20194;-74
2022/04/13 02:01:50;;;;;;;7.70;7.30;;;11.50;20.90;;;;;;5075067;28;20183;-74
2022/04/13 02:04:25;;;;;;;8.00;7.47;;;11.50;20.80;;;;;;5074927;28;20815;-73
2022/04/13 02:06:52;;;;;;;8.60;8.00;;;11.40;20.90;;;;;;5074713;28;20923;-73
2022/04/13 02:09:18;;;;;;;8.30;7.80;;;11.30;20.80;;;;;;5074829;28;20775;-73
2022/04/13 02:11:46;;;;;;;7.10;6.70;;;11.20;21.50;;;;;;5074649;28;20895;-73
2022/04/13 02:14:12;;;;;;;7.73;7.33;;;11.10;21.20;;;;;;5074618;28;20920;-73
2022/04/13 02:16:38;;;;;;;7.47;6.97;;;11.00;21.70;;;;;;5074612;28;20493;-73
2022/04/13 02:19:06;;;;;;;6.87;6.50;;;11.10;22.30;;;;;;5073306;28;20508;-73
2022/04/13 02:21:31;;;;;;;7.07;6.60;;;11.10;21.90;;;;;;5075119;28;20406;-73
2022/04/13 02:23:57;;;;;;;6.97;6.40;;;11.10;21.80;;;;;;5074429;28;20495;-73
2022/04/13 02:26:24;;;;;;;7.30;6.80;;;11.00;21.70;;;;;;5074276;28;20235;-73
2022/04/13 02:28:49;;;;;;;7.50;7.03;;;10.90;22.10;;;;;;5072300;28;20419;-73
2022/04/13 02:31:15;;;;;;;6.23;5.90;;;11.00;22.80;;;;;;5072998;28;20469;-73
2022/04/13 02:33:41;;;;;;;7.90;7.00;;;11.00;22.30;;;;;;5074260;28;20620;-73
2022/04/13 02:36:06;;;;;;;7.17;6.60;;;11.00;22.40;;;;;;5074086;28;20257;-72
2022/04/13 02:38:32;;;;;;;6.47;6.17;;;11.00;22.40;;;;;;5072767;28;20175;-72
2022/04/13 02:40:59;;;;;;;7.10;6.60;;;11.00;21.90;;;;;;5074286;28;20282;-72
2022/04/13 02:43:26;;;;;;;7.00;6.50;;;10.90;22.30;;;;;;5074101;28;20467;-72
2022/04/13 02:45:51;;;;;;;7.23;6.57;;;10.90;22.80;;;;;;5074103;28;20986;-72
2022/04/13 02:48:17;;;;;;;7.07;6.57;;;10.90;22.80;;;;;;5073748;28;20425;-73
2022/04/13 02:50:42;;;;;;;7.53;6.93;;;10.80;22.70;;;;;;5072732;28;20209;-73
2022/04/13 02:53:08;;;;;;;7.80;7.30;;;10.80;22.70;;;;;;5073868;28;20199;-72
2022/04/13 02:55:34;;;;;;;7.80;7.20;;;10.80;23.10;;;;;;5073939;28;20171;-72
2022/04/13 02:57:59;;;;;;;7.43;6.83;;;10.80;23.10;;;;;;5072428;28;20176;-73
2022/04/13 03:00:25;;;;;;;8.00;7.50;;;10.70;23.10;;;;;;5072624;28;20183;-73
2022/04/13 03:02:50;;;;;;;6.27;5.87;;;10.70;23.10;;;;;;5074167;28;20783;-73
2022/04/13 03:05:16;;;;;;;7.10;6.70;;;10.70;23.00;;;;;;5074238;28;20264;-73
2022/04/13 03:07:42;;;;;;;7.97;7.47;;;10.60;23.00;;;;;;5072091;28;20182;-73
2022/04/13 03:10:08;;;;;;;7.00;6.40;;;10.60;23.00;;;;;;5072199;28;20513;-73
2022/04/13 03:12:34;;;;;;;7.17;6.67;;;10.60;23.00;;;;;;5073526;28;20453;-73
2022/04/13 03:15:01;;;;;;;6.93;6.53;;;10.50;22.90;;;;;;5073737;28;20503;-73
2022/04/13 03:17:27;;;;;;;7.17;6.57;;;10.40;23.20;;;;;;5073232;28;20174;-73
2022/04/13 03:19:53;;;;;;;7.30;6.80;;;10.30;23.70;;;;;;5073326;28;20504;-73
2022/04/13 03:22:22;;;;;;;7.60;7.07;;;10.20;23.90;;;;;;5073389;28;20490;-73
2022/04/13 03:24:48;;;;;;;6.83;6.33;;;10.20;24.10;;;;;;5072026;28;20186;-72
2022/04/13 03:27:13;;;;;;;6.70;6.30;;;10.10;23.90;;;;;;5072983;28;20461;-73
2022/04/13 03:29:39;;;;;;;6.23;5.73;;;10.10;24.90;;;;;;5073323;28;20287;-72
2022/04/13 03:32:05;;;;;;;6.67;6.27;;;10.00;24.40;;;;;;5073264;28;20174;-72
2022/04/13 03:34:30;;;;;;;5.97;5.67;;;10.00;24.60;;;;;;5073230;28;20205;-73
2022/04/13 03:36:57;;;;;;;11.33;6.87;;;10.00;24.80;;;;;;5071484;28;20831;-73
2022/04/13 03:39:23;;;;;;;6.37;5.80;;;10.00;24.90;;;;;;5072082;28;20174;-73
2022/04/13 03:41:49;;;;;;;6.07;5.47;;;10.00;24.80;;;;;;5072988;28;20412;-73
2022/04/13 03:44:14;;;;;;;8.87;6.80;;;9.90;25.60;;;;;;5072828;28;20194;-72
2022/04/13 03:46:40;;;;;;;5.80;5.50;;;9.90;25.60;;;;;;5072823;28;20256;-72
2022/04/13 03:49:07;;;;;;;5.97;5.47;;;9.80;25.60;;;;;;5072850;28;20235;-72
2022/04/13 03:51:33;;;;;;;6.03;5.63;;;9.80;25.80;;;;;;5073102;28;20167;-73
2022/04/13 03:53:58;;;;;;;5.80;5.40;;;9.70;25.80;;;;;;5072753;28;20424;-74
2022/04/13 03:56:24;;;;;;;5.90;5.50;;;9.70;26.00;;;;;;5071243;28;20422;-73
2022/04/13 03:58:49;;;;;;;7.97;5.57;;;9.60;26.10;;;;;;5072632;28;20223;-74
2022/04/13 04:01:15;;;;;;;7.07;6.47;;;9.60;26.10;;;;;;5072861;28;20253;-73
2022/04/13 04:03:40;;;;;;;5.13;4.73;;;9.50;26.00;;;;;;5072463;28;20220;-73
2022/04/13 04:06:06;;;;;;;5.50;5.10;;;9.50;26.50;;;;;;5072466;28;20702;-73
2022/04/13 04:08:35;;;;;;;6.53;5.93;;;9.50;27.00;;;;;;5072173;28;20178;-74
2022/04/13 04:11:01;;;;;;;6.30;5.90;;;9.50;26.50;;;;;;5071213;28;20242;-74
2022/04/13 04:13:27;;;;;;;7.83;7.10;;;9.40;26.70;;;;;;5072447;28;20533;-74
2022/04/13 04:15:52;;;;;;;6.57;6.07;;;9.40;26.80;;;;;;5072363;28;20170;-74
2022/04/13 04:18:19;;;;;;;7.13;6.53;;;9.30;27.00;;;;;;5070676;28;20413;-73
2022/04/13 04:20:44;;;;;;;5.40;5.00;;;9.30;27.10;;;;;;5070835;28;20209;-74
2022/04/13 04:23:10;;;;;;;5.90;5.50;;;9.30;27.10;;;;;;5070852;28;20522;-73
2022/04/13 04:25:36;;;;;;;6.00;5.60;;;9.30;27.10;;;;;;5072276;28;20187;-74
2022/04/13 04:28:03;;;;;;;6.57;6.07;;;9.30;27.00;;;;;;5071898;28;20170;-74
2022/04/13 04:30:31;;;;;;;6.17;5.77;;;9.30;27.10;;;;;;5070896;28;20542;-74
2022/04/13 04:32:57;;;;;;;7.43;6.93;;;9.30;27.00;;;;;;5072069;28;20800;-74
2022/04/13 04:35:23;;;;;;;5.50;5.20;;;9.30;27.10;;;;;;5072217;28;20416;-74
2022/04/13 04:37:48;;;;;;;5.87;5.30;;;9.30;27.00;;;;;;5070570;28;20266;-74
2022/04/13 04:40:14;;;;;;;6.60;6.00;;;9.40;27.10;;;;;;5070499;28;20270;-75
2022/04/13 04:42:47;;;;;;;6.53;6.13;;;9.40;27.10;;;;;;5072431;28;20551;-73
2022/04/13 04:45:16;;;;;;;6.30;5.80;;;9.40;27.10;;;;;;5070882;28;20208;-73
2022/04/13 04:47:42;;;;;;;8.87;8.07;;;9.30;27.20;;;;;;5071899;28;20465;-73
2022/04/13 04:50:09;;;;;;;5.90;5.40;;;9.40;27.30;;;;;;5070316;28;20459;-73
2022/04/13 04:52:42;;;;;;;5.80;5.30;;;9.40;27.10;;;;;;5070653;28;20241;-73
2022/04/13 04:55:09;;;;;;;5.53;5.23;;;9.40;27.10;;;;;;5072116;28;20413;-72
2022/04/13 04:57:37;;;;;;;7.90;6.20;;;9.50;27.20;;;;;;5071845;28;20790;-74
2022/04/13 05:00:05;;;;;;;6.33;5.73;;;9.50;27.20;;;;;;5071933;28;20984;-72
2022/04/13 05:02:32;;;;;;;6.83;6.30;;;9.60;27.10;;;;;;5071840;28;20551;-74
2022/04/13 05:04:57;;;;;;;7.17;6.67;;;9.60;27.20;;;;;;5070794;28;20518;-73
2022/04/13 05:07:23;;;;;;;7.10;6.57;;;9.70;26.80;;;;;;5070617;28;20282;-73
2022/04/13 05:09:49;;;;;;;6.50;6.00;;;9.80;26.50;;;;;;5071932;28;20241;-74
2022/04/13 05:12:15;;;;;;;6.70;6.20;;;9.90;26.30;;;;;;5070696;28;20628;-74
2022/04/13 05:14:40;;;;;;;8.80;8.07;;;10.10;25.20;;;;;;5074742;28;20176;-74
2022/04/13 05:17:06;;;;;;;7.33;6.73;;;10.20;24.70;;;;;;5074938;28;20202;-74
2022/04/13 05:19:33;;;;;;;9.50;8.70;;;10.40;24.30;;;;;;5072517;28;20178;-73
2022/04/13 05:21:59;;;;;;;7.70;7.03;;;10.60;24.10;;;;;;5071911;28;20789;-74
2022/04/13 05:24:25;;;;;;;7.80;7.30;;;10.70;23.30;;;;;;5071737;28;20896;-74
2022/04/13 05:26:50;;;;;;;7.97;7.47;;;10.80;23.20;;;;;;5071527;28;20264;-74
2022/04/13 05:29:16;;;;;;;8.13;7.47;;;11.00;23.30;;;;;;5071783;28;20182;-74
2022/04/13 05:31:42;;;;;;;8.00;7.47;;;11.20;23.00;;;;;;5071502;28;20830;-73
2022/04/13 05:34:08;;;;;;;8.27;7.77;;;11.50;22.20;;;;;;5070161;28;20199;-74
2022/04/13 05:36:34;;;;;;;9.57;9.00;;;11.90;22.30;;;;;;5070490;28;20229;-74
2022/04/13 05:39:00;;;;;;;10.20;9.40;;;12.30;21.70;;;;;;5070380;28;20476;-74
2022/04/13 05:41:25;;;;;;;9.73;9.23;;;12.70;20.20;;;;;;5071779;28;20909;-73
2022/04/13 05:43:51;;;;;;;10.17;9.47;;;13.10;19.50;;;;;;5071393;28;20261;-73
2022/04/13 05:46:17;;;;;;;11.10;10.13;;;13.40;18.50;;;;;;5071552;28;20179;-72
2022/04/13 05:48:42;;;;;;;11.53;10.87;;;13.80;17.90;;;;;;5071367;28;20192;-72
2022/04/13 05:51:09;;;;;;;11.13;10.43;;;14.10;18.10;;;;;;5071233;28;20319;-74
2022/04/13 05:53:35;;;;;;;12.60;11.63;;;14.40;17.10;;;;;;5069744;28;20225;-74
2022/04/13 05:56:01;;;;;;;12.63;11.93;;;14.70;16.60;;;;;;5086993;28;20788;-74
2022/04/13 05:58:27;;;;;;;13.80;12.43;;;15.00;15.90;;;;;;5069706;28;20514;-74
2022/04/13 06:00:53;;;;;;;13.07;12.07;;;15.30;14.80;;;;;;5071453;28;20192;-74
2022/04/13 06:03:19;;;;;;;13.20;12.30;;;15.50;14.90;;;;;;5073007;28;20489;-75
2022/04/13 06:05:47;;;;;;;13.77;12.77;;;15.70;14.00;;;;;;5075204;28;20424;-75
2022/04/13 06:08:15;;;;;;;13.87;12.97;;;15.90;13.70;;;;;;5074783;28;20485;-76
2022/04/13 06:10:40;;;;;;;13.60;12.90;;;16.10;13.00;;;;;;5073721;28;20455;-75
2022/04/13 06:13:06;;;;;;;13.67;13.13;;;16.40;13.50;;;;;;5074687;28;20632;-75
2022/04/13 06:15:32;;;;;;;15.10;13.90;;;16.80;12.80;;;;;;5074613;28;20182;-76
2022/04/13 06:17:58;;;;;;;14.00;13.40;;;17.20;12.20;;;;;;5074390;28;20209;-73
2022/04/13 06:20:24;;;;;;;15.40;14.50;;;17.30;11.00;;;;;;5074783;28;20781;-74
2022/04/13 06:22:49;;;;;;;15.20;14.40;;;17.50;10.60;;;;;;5074627;28;20439;-74
2022/04/13 06:25:15;;;;;;;13.67;13.07;;;17.80;10.60;;;;;;5073312;28;20669;-73
2022/04/13 06:27:41;;;;;;;14.70;13.93;;;18.10;10.80;;;;;;5074369;28;20640;-74
2022/04/13 06:30:09;;;;;;;14.90;14.10;;;18.50;10.40;;;;;;5074227;28;20670;-74
2022/04/13 06:32:38;;;;;;;15.17;14.40;;;18.90;9.00;;;;;;5074363;28;20281;-75
2022/04/13 06:35:05;;;;;;;16.03;14.70;;;19.30;9.20;;;;;;5074597;28;20764;-74
2022/04/13 06:37:31;;;;;;;14.37;13.70;;;19.70;8.80;;;;;;5074341;28;20415;-74
2022/04/13 06:39:57;;;;;;;15.57;14.77;;;20.10;8.10;;;;;;5074477;28;20420;-74
2022/04/13 06:42:23;;;;;;;14.80;14.10;;;20.50;7.50;;;;;;5074430;28;20182;-74
2022/04/13 06:44:50;;;;;;;16.50;15.70;;;21.00;7.10;;;;;;5074215;28;20181;-74
2022/04/13 06:47:16;;;;;;;15.57;14.87;;;21.30;6.60;;;;;;5073782;28;20447;-74
2022/04/13 06:49:41;;;;;;;16.53;15.83;;;21.60;5.80;;;;;;5073944;28;20460;-74
2022/04/13 06:52:07;;;;;;;15.80;14.90;;;22.00;5.50;;;;;;5074157;28;20409;-74
2022/04/13 06:54:32;;;;;;;15.23;14.33;;;22.10;5.10;;;;;;5074110;28;20217;-74
2022/04/13 06:56:58;;;;;;;15.50;14.80;;;22.40;5.10;;;;;;5073812;28;20487;-74
2022/04/13 06:59:24;;;;;;;15.03;14.30;;;22.50;4.70;;;;;;5073923;28;20756;-75
2022/04/13 07:01:49;;;;;;;16.23;15.43;;;22.70;4.80;;;;;;5073867;28;20197;-74
2022/04/13 07:04:15;;;;;;;17.13;16.20;;;22.90;4.60;;;;;;5073942;28;20193;-74
2022/04/13 07:06:40;;;;;;;16.97;16.10;;;23.10;4.20;;;;;;5073595;28;20536;-74
2022/04/13 07:09:06;;;;;;;16.00;15.30;;;23.30;3.70;;;;;;5072407;28;20255;-74
2022/04/13 07:11:31;;;;;;;15.60;14.80;;;23.50;3.80;;;;;;5072328;28;20216;-74
2022/04/13 07:13:57;;;;;;;16.20;15.30;;;23.70;4.00;;;;;;5073220;28;20221;-74
2022/04/13 07:16:22;;;;;;;17.03;15.90;;;23.80;3.80;;;;;;5075184;28;20174;-75
2022/04/13 07:18:48;;;;;;;15.67;15.07;;;23.90;2.90;;;;;;5076480;28;20538;-74
2022/04/13 07:21:13;;;;;;;16.30;15.50;;;23.90;2.60;;;;;;5073649;28;20862;-74
2022/04/13 07:23:39;;;;;;;15.73;15.03;;;23.80;2.10;;;;;;5073540;28;20539;-73
2022/04/13 07:26:05;;;;;;;17.33;15.90;;;23.70;2.70;;;;;;5073609;28;20173;-75
2022/04/13 07:28:30;;;;;;;16.87;16.07;;;23.80;2.70;;;;;;5073098;28;20221;-74
2022/04/13 07:30:56;;;;;;;17.90;16.63;;;23.90;2.90;;;;;;5071766;28;20285;-74
2022/04/13 07:33:21;;;;;;;17.40;16.33;;;23.80;3.50;;;;;;5073193;28;20198;-74
2022/04/13 07:35:47;;;;;;;17.00;16.20;;;23.70;3.60;;;;;;5074300;28;20173;-73
2022/04/13 07:38:13;;;;;;;17.20;16.40;;;23.70;3.30;;;;;;5074242;28;20209;-74
2022/04/13 07:40:38;;;;;;;17.60;16.50;;;23.60;3.50;;;;;;5076192;28;20174;-74
2022/04/13 07:43:04;;;;;;;18.50;17.30;;;22.60;3.10;;;;;;5074901;28;20432;-74
2022/04/13 07:45:30;;;;;;;17.77;16.87;;;22.40;4.00;;;;;;5075327;28;20217;-74
2022/04/13 07:47:56;;;;;;;19.47;18.33;;;22.60;4.60;;;;;;5072680;28;20188;-74
2022/04/13 07:50:21;;;;;;;17.03;16.23;;;22.80;4.70;;;;;;5072632;28;20463;-74
2022/04/13 07:52:47;;;;;;;17.30;16.40;;;23.10;4.20;;;;;;5072628;28;20193;-75
2022/04/13 07:55:12;;;;;;;18.20;17.10;;;23.20;3.60;;;;;;5073159;28;20276;-75
2022/04/13 07:57:39;;;;;;;18.40;17.20;;;23.40;4.20;;;;;;5072988;28;20181;-75
2022/04/13 08:00:06;;;;;;;16.97;16.07;;;23.70;3.70;;;;;;5073644;28;20210;-74
2022/04/13 08:02:34;;;;;;;18.57;17.47;;;23.60;3.30;;;;;;5088739;28;20439;-74
2022/04/13 08:05:00;;;;;;;18.07;17.17;;;23.70;2.90;;;;;;5073599;28;20455;-75
2022/04/13 08:07:26;;;;;;;17.80;16.70;;;23.70;2.10;;;;;;5073140;28;20865;-75
2022/04/13 08:09:51;;;;;;;17.00;16.10;;;23.80;3.40;;;;;;5073539;28;20213;-74
2022/04/13 08:12:17;;;;;;;17.90;16.67;;;24.10;3.30;;;;;;5088241;28;21129;-74
2022/04/13 08:14:46;;;;;;;18.37;17.47;;;24.30;3.10;;;;;;5073448;28;20419;-74
2022/04/13 08:17:13;;;;;;;18.43;17.33;;;23.60;3.20;;;;;;5088306;28;20205;-74
2022/04/13 08:19:38;;;;;;;19.23;17.90;;;23.90;4.50;;;;;;5072906;28;20415;-74
2022/04/13 08:22:04;;;;;;;17.87;16.77;;;24.10;3.80;;;;;;5072986;28;20412;-75
2022/04/13 08:24:29;;;;;;;17.27;16.37;;;24.20;4.00;;;;;;5071369;28;20205;-75
2022/04/13 08:26:58;;;;;;;18.53;17.53;;;24.30;2.70;;;;;;5071981;28;20189;-75
2022/04/13 08:29:25;;;;;;;17.30;16.50;;;24.20;2.90;;;;;;5072276;28;20178;-75
2022/04/13 08:31:50;;;;;;;18.67;17.30;;;24.30;3.20;;;;;;5072631;28;20468;-74
2022/04/13 08:34:16;;;;;;;19.40;18.40;;;23.70;2.80;;;;;;5071073;28;20996;-74
2022/04/13 08:36:41;;;;;;;18.83;17.47;;;23.50;3.80;;;;;;5072513;28;20275;-74
2022/04/13 08:39:13;;;;;;;17.67;16.57;;;23.50;4.00;;;;;;5071619;28;20217;-74
2022/04/13 08:41:51;;;;;;;17.43;16.63;;;23.60;4.20;;;;;;5071811;28;20178;-74
2022/04/13 08:44:22;;;;;;;18.03;17.03;;;23.60;4.70;;;;;;5072925;28;20873;-74
2022/04/13 08:46:50;;;;;;;17.57;16.50;;;23.20;4.30;;;;;;5088052;28;20797;-74
2022/04/13 08:49:17;;;;;;;17.67;16.67;;;23.00;5.00;;;;;;5088310;28;20503;-74
2022/04/13 08:51:44;;;;;;;16.80;16.00;;;23.10;5.10;;;;;;5072521;28;20416;-74
2022/04/13 08:54:21;;;;;;;16.30;15.60;;;23.20;4.70;;;;;;5073226;28;20437;-75
2022/04/13 08:56:48;;;;;;;17.10;16.27;;;22.70;3.80;;;;;;5070523;28;20449;-75
2022/04/13 08:59:31;;;;;;;17.90;16.90;;;22.40;4.40;;;;;;5071976;28;20844;-75
2022/04/13 09:02:34;;;;;;;16.90;15.83;;;22.00;4.30;;;;;;5071916;28;20890;-75
2022/04/13 09:05:01;;;;;;;16.80;15.90;;;21.70;4.10;;;;;;5087593;28;20424;-75
2022/04/13 09:07:31;;;;;;;17.53;16.60;;;22.00;3.80;;;;;;5071688;28;20420;-74
2022/04/13 09:10:01;;;;;;;16.53;15.73;;;21.90;3.80;;;;;;5071592;28;20464;-75
2022/04/13 09:12:33;;;;;;;16.07;15.37;;;22.10;4.40;;;;;;5072266;28;20412;-76
2022/04/13 09:15:03;;;;;;;16.70;15.90;;;22.10;4.30;;;;;;5072461;28;20416;-75
2022/04/13 09:17:29;;;;;;;16.53;15.83;;;21.60;4.50;;;;;;5071646;28;20893;-76
2022/04/13 09:19:59;;;;;;;14.90;14.30;;;21.10;5.10;;;;;;5072252;28;20495;-76
2022/04/13 09:22:25;;;;;;;15.40;14.70;;;21.20;5.60;;;;;;5073543;28;20185;-75
2022/04/13 09:24:52;;;;;;;15.57;14.97;;;21.40;5.70;;;;;;5073301;28;20412;-75
2022/04/13 09:27:20;;;;;;;15.43;14.73;;;21.70;5.40;;;;;;5072182;28;20416;-76
2022/04/13 09:29:47;;;;;;;15.80;15.10;;;22.00;5.50;;;;;;5073501;28;20474;-75
2022/04/13 09:32:14;;;;;;;16.47;15.67;;;22.20;5.00;;;;;;5072670;28;20870;-75
2022/04/13 09:34:40;;;;;;;17.40;16.30;;;21.80;4.20;;;;;;5073262;28;20495;-74
2022/04/13 09:37:06;;;;;;;16.07;15.17;;;21.20;5.90;;;;;;5075637;28;20444;-74
2022/04/13 09:39:33;;;;;;;14.83;14.23;;;20.90;5.50;;;;;;5077195;28;20173;-76
2022/04/13 09:42:03;;;;;;;16.83;16.03;;;20.90;6.70;;;;;;5077299;28;20913;-76
2022/04/13 09:44:30;;;;;;;15.40;14.80;;;21.30;6.50;;;;;;5076948;28;20511;-75
2022/04/13 09:47:14;;;;;;;17.00;16.20;;;21.60;6.40;;;;;;5077747;28;20412;-75
2022/04/13 09:49:50;;;;;;;16.87;15.87;;;21.50;4.50;;;;;;5078327;28;20987;-76
2022/04/13 09:52:16;;;;;;;17.83;16.60;;;21.70;4.10;;;;;;5078086;28;21012;-76
2022/04/13 09:54:46;;;;;;;17.77;16.87;;;21.70;4.10;;;;;;5076934;28;20785;-76
2022/04/13 09:57:24;;;;;;;16.40;15.70;;;21.50;4.00;;;;;;5076585;28;20193;-75
2022/04/13 09:59:55;;;;;;;16.67;15.77;;;21.00;5.10;;;;;;5076457;28;20784;-76
2022/04/13 10:02:39;;;;;;;16.77;15.60;;;21.10;5.40;;;;;;5076565;28;20420;-75
2022/04/13 10:05:19;;;;;;;15.97;15.20;;;21.00;5.80;;;;;;5075501;28;20431;-76
2022/04/13 10:07:45;;;;;;;16.20;15.30;;;21.20;5.50;;;;;;5076001;28;20416;-75
2022/04/13 10:10:24;;;;;;;16.27;15.47;;;21.10;5.00;;;;;;5076779;28;20589;-75
2022/04/13 10:12:49;;;;;;;15.97;15.27;;;21.20;4.50;;;;;;5076242;28;20213;-76
2022/04/13 10:15:15;;;;;;;16.13;15.47;;;21.50;5.30;;;;;;5075801;28;20412;-75
2022/04/13 10:17:41;;;;;;;16.43;15.23;;;21.70;4.10;;;;;;5077737;28;20220;-75
2022/04/13 10:20:07;;;;;;;15.17;14.47;;;21.70;4.10;;;;;;5075802;28;20416;-75
2022/04/13 10:22:33;;;;;;;15.47;14.67;;;21.50;4.00;;;;;;5075656;28;20439;-74
2022/04/13 10:25:25;;;;;;;14.57;14.07;;;21.50;3.20;;;;;;5075904;28;20182;-74
2022/04/13 10:27:58;;;;;;;16.00;15.00;;;21.50;3.50;;;;;;5075398;28;20228;-74
2022/04/13 10:30:26;;;;;;;15.10;14.40;;;21.50;3.70;;;;;;5075834;28;20522;-75
2022/04/13 10:33:00;;;;;;;15.03;13.80;;;21.50;3.40;;;;;;5076408;28;20447;-76
2022/04/13 10:35:27;;;;;;;14.57;13.97;;;21.50;3.50;;;;;;5076250;28;20412;-76
2022/04/13 10:37:54;;;;;;;16.40;15.37;;;21.60;3.40;;;;;;5074815;28;20444;-75
2022/04/13 10:40:21;;;;;;;15.23;14.33;;;21.50;2.90;;;;;;5074176;28;20420;-74
2022/04/13 10:42:50;;;;;;;14.47;13.77;;;21.60;2.80;;;;;;5073507;28;20444;-74
2022/04/13 10:45:16;;;;;;;15.73;15.03;;;21.40;2.50;;;;;;5074091;28;20459;-75
2022/04/13 10:47:48;;;;;;;14.93;14.33;;;21.20;3.10;;;;;;5074663;28;20826;-74
2022/04/13 10:50:16;;;;;;;16.03;15.30;;;21.30;2.80;;;;;;5074518;28;20509;-74
2022/04/13 10:53:05;;;;;;;15.50;14.53;;;21.40;2.90;;;;;;5075054;28;20810;-74
2022/04/13 10:55:34;;;;;;;15.20;14.50;;;21.50;3.20;;;;;;5075097;28;20409;-75
2022/04/13 10:58:07;;;;;;;15.33;14.63;;;21.50;3.20;;;;;;5074411;28;20824;-74
2022/04/13 11:00:36;;;;;;;16.10;15.40;;;21.70;3.10;;;;;;5074175;28;20511;-75
2022/04/13 11:03:03;;;;;;;16.70;15.80;;;21.80;2.50;;;;;;5073938;28;20796;-73
2022/04/13 11:05:30;;;;;;;16.93;15.70;;;21.70;2.50;;;;;;5072748;28;20853;-74
2022/04/13 11:08:01;;;;;;;16.77;15.97;;;21.80;2.70;;;;;;5074020;28;20416;-74
2022/04/13 11:10:29;;;;;;;16.27;15.50;;;22.00;3.10;;;;;;5074350;28;20861;-74
2022/04/13 11:12:55;;;;;;;16.07;15.37;;;21.90;2.50;;;;;;5086369;22;20482;-70
2022/04/13 11:15:43;;;;;;;15.17;14.47;;;21.80;2.70;;;;;;5073635;28;20420;-70
2022/04/13 11:18:10;;;;;;;16.20;15.50;;;21.90;2.60;;;;;;5088958;28;20177;-71
2022/04/13 11:20:37;;;;;;;15.73;15.03;;;21.70;2.30;;;;;;5073340;28;20457;-71
2022/04/13 11:23:18;;;;;;;15.53;14.93;;;21.70;2.80;;;;;;5071910;28;20972;-71
2022/04/13 11:25:54;;;;;;;16.50;15.47;;;21.70;2.90;;;;;;5073478;28;20419;-71
2022/04/13 11:28:28;;;;;;;15.43;14.63;;;22.00;2.20;;;;;;5073084;28;20487;-71
2022/04/13 11:31:11;;;;;;;15.80;15.13;;;22.10;2.60;;;;;;5073115;28;20471;-71
2022/04/13 11:33:56;;;;;;;15.90;14.97;;;22.20;2.40;;;;;;5073311;28;20433;-71
2022/04/13 11:36:24;;;;;;;16.53;15.67;;;22.30;2.00;;;;;;5072929;28;20496;-71
2022/04/13 11:38:52;;;;;;;15.80;15.00;;;22.00;2.30;;;;;;5073214;28;20818;-72
2022/04/13 11:41:18;;;;;;;15.97;15.27;;;22.20;2.60;;;;;;5073129;28;20400;-71
2022/04/13 11:43:45;;;;;;;16.80;16.00;;;22.10;2.30;;;;;;5073005;28;20515;-71
2022/04/13 11:46:35;;;;;;;17.23;16.17;;;22.00;2.10;;;;;;5073275;28;20400;-71
2022/04/13 11:49:01;;;;;;;15.20;14.60;;;22.30;2.40;;;;;;5061783;28;20423;-71
2022/04/13 11:51:31;;;;;;;16.73;15.93;;;22.60;2.20;;;;;;5072789;28;20456;-71
2022/04/13 11:54:14;;;;;;;16.83;15.70;;;22.50;2.00;;;;;;5072736;28;20239;-71
2022/04/13 11:56:49;;;;;;;16.63;15.73;;;22.40;2.30;;;;;;5072278;28;20404;-72
2022/04/13 11:59:44;;;;;;;15.90;15.30;;;22.70;2.90;;;;;;5072376;28;20464;-72
2022/04/13 12:02:10;;;;;;;16.93;16.13;;;22.60;2.40;;;;;;5072260;28;20967;-71
2022/04/13 12:04:38;;;;;;;17.03;16.03;;;22.80;2.20;;;;;;5072317;28;20471;-72
2022/04/13 12:07:06;;;;;;;16.20;15.40;;;22.80;1.70;;;;;;5087708;28;20430;-72
2022/04/13 12:09:32;;;;;;;15.40;14.80;;;22.90;1.80;;;;;;5072404;28;20748;-72
2022/04/13 12:11:58;;;;;;;16.17;15.37;;;23.00;1.90;;;;;;5072227;28;20424;-72
2022/04/13 12:14:36;;;;;;;16.63;15.73;;;23.00;1.70;;;;;;5072701;28;20206;-72
2022/04/13 12:17:02;;;;;;;17.53;16.73;;;23.20;1.00;;;;;;5072521;28;20440;-72
2022/04/13 12:19:39;;;;;;;17.57;16.77;;;23.00;1.10;;;;;;5072759;28;20541;-72
2022/04/13 12:22:19;;;;;;;16.00;15.20;;;23.00;2.10;;;;;;5072241;28;20860;-72
2022/04/13 12:25:05;;;;;;;15.70;15.00;;;22.80;1.40;;;;;;5072010;28;20447;-71
2022/04/13 12:27:31;;;;;;;15.83;14.97;;;22.90;1.50;;;;;;5072006;28;20439;-72
2022/04/13 12:30:16;;;;;;;17.17;16.17;;;23.10;1.50;;;;;;5072078;28;20502;-71
2022/04/13 12:32:46;;;;;;;17.23;15.97;;;23.30;1.00;;;;;;5071950;28;20173;-72
2022/04/13 12:35:13;;;;;;;16.13;15.43;;;23.20;1.00;;;;;;5072086;28;20416;-72
2022/04/13 12:37:56;;;;;;;17.00;16.03;;;23.30;1.10;;;;;;5071757;28;20789;-71
2022/04/13 12:40:25;;;;;;;16.03;15.23;;;23.40;1.00;;;;;;5072095;28;20503;-71
2022/04/13 12:42:52;;;;;;;15.20;14.60;;;23.50;1.00;;;;;;5071897;28;20432;-71
2022/04/13 12:45:18;;;;;;;16.07;15.27;;;23.30;1.00;;;;;;5071989;28;20455;-71